Time;durP1;ratioP1;P1;durP2;ratioP2;P2;SDS_P1;SDS_P2;PMS_P1;PMS_P2;Temp;Humidity;BMP_temperature;BMP_pressure;BME280_temperature;BME280_humidity;BME280_pressure;Samples;Min_cycle;Max_cycle;Signal;HPM_P1;HPM_P2
2021/05/31 00:01:47;;;;;;;5.78;4.40;;;;;;;12.29;70.05;94676.81;2969902;39;20060;-70
2021/05/31 00:03:49;;;;;;;6.18;5.13;;;;;;;12.28;70.04;94677.84;2970543;39;20072;-69
2021/05/31 00:05:51;;;;;;;6.82;4.97;;;;;;;12.28;70.23;94675.22;2972633;39;20168;-70
2021/05/31 00:07:54;;;;;;;6.35;5.10;;;;;;;12.24;70.48;94680.97;2973714;40;20421;-70
2021/05/31 00:09:56;;;;;;;5.23;4.67;;;;;;;12.22;70.75;94670.63;2975335;39;20101;-70
2021/05/31 00:11:58;;;;;;;5.25;4.75;;;;;;;12.22;70.50;94675.88;2973820;39;20067;-70
2021/05/31 00:14:00;;;;;;;6.47;4.78;;;;;;;12.22;70.99;94670.63;2974199;40;20124;-69
2021/05/31 00:16:02;;;;;;;6.03;4.95;;;;;;;12.23;71.08;94672.25;2967986;39;20597;-82
2021/05/31 00:18:04;;;;;;;5.70;4.70;;;;;;;12.22;70.33;94670.63;2975697;39;20395;-81
2021/05/31 00:20:09;;;;;;;5.70;5.07;;;;;;;12.25;70.65;94664.22;2971495;40;20136;-82
2021/05/31 00:22:11;;;;;;;6.10;4.60;;;;;;;12.18;70.60;94671.13;2973226;40;20428;-81
2021/05/31 00:24:13;;;;;;;5.47;4.93;;;;;;;12.11;70.45;94663.13;2975283;39;20060;-80
2021/05/31 00:26:16;;;;;;;5.25;4.55;;;;;;;12.12;70.77;94667.38;2971057;39;20084;-81
2021/05/31 00:28:17;;;;;;;6.03;4.75;;;;;;;12.14;71.01;94664.59;2975375;40;20132;-84
2021/05/31 00:30:23;;;;;;;5.80;4.85;;;;;;;12.13;71.21;94665.56;2976036;39;20113;-81
2021/05/31 00:32:25;;;;;;;7.22;5.10;;;;;;;12.12;70.73;94666.56;2974812;40;20059;-82
2021/05/31 00:34:26;;;;;;;6.28;5.15;;;;;;;12.07;70.86;94665.25;2975220;40;20064;-82
2021/05/31 00:36:28;;;;;;;5.55;4.60;;;;;;;12.04;71.17;94662.94;2976252;39;20059;-80
2021/05/31 00:38:30;;;;;;;5.68;5.00;;;;;;;12.08;71.34;94658.19;2973880;39;20055;-81
2021/05/31 00:40:32;;;;;;;5.50;5.00;;;;;;;12.08;71.09;94659.00;2976047;39;20091;-80
2021/05/31 00:42:34;;;;;;;6.63;5.25;;;;;;;12.03;70.89;94650.00;2972477;39;20385;-84
2021/05/31 00:44:36;;;;;;;5.00;4.20;;;;;;;11.95;70.94;94652.66;2973658;39;20133;-83
2021/05/31 00:46:37;;;;;;;5.97;4.88;;;;;;;11.94;71.27;94657.09;2973463;39;20084;-81
2021/05/31 00:48:40;;;;;;;5.68;4.95;;;;;;;11.96;71.81;94656.91;2974628;39;20497;-82
2021/05/31 00:50:43;;;;;;;6.88;5.40;;;;;;;11.87;71.59;94651.66;2976370;40;20393;-83
2021/05/31 00:52:45;;;;;;;5.00;4.50;;;;;;;11.95;71.46;94650.03;2975420;39;20087;-81
2021/05/31 00:54:46;;;;;;;5.65;4.80;;;;;;;11.98;71.25;94652.31;2971785;39;20060;-69
2021/05/31 00:56:49;;;;;;;5.45;4.82;;;;;;;11.98;71.06;94650.53;2973061;40;20367;-70
2021/05/31 00:58:51;;;;;;;5.50;4.75;;;;;;;11.98;71.58;94650.53;2973958;39;20068;-69
2021/05/31 01:00:54;;;;;;;6.80;5.80;;;;;;;11.98;71.68;94661.03;2970625;39;20084;-70
2021/05/31 01:02:56;;;;;;;5.55;4.63;;;;;;;11.94;71.39;94651.00;2973800;39;20064;-68
2021/05/31 01:04:58;;;;;;;7.00;5.20;;;;;;;11.93;71.63;94644.13;2972947;39;20096;-70
2021/05/31 01:07:03;;;;;;;6.38;4.90;;;;;;;11.92;71.55;94643.31;2975505;39;20056;-71
2021/05/31 01:09:07;;;;;;;5.47;4.85;;;;;;;11.96;71.22;94644.63;2969019;39;20148;-70
2021/05/31 01:11:13;;;;;;;5.47;4.45;;;;;;;11.90;70.75;94636.59;2972464;39;20152;-70
2021/05/31 01:13:49;;;;;;;5.90;5.30;;;;;;;11.93;71.25;94633.63;2971241;40;20466;-70
2021/05/31 01:15:58;;;;;;;5.97;4.75;;;;;;;11.94;70.85;94633.47;2965796;40;20070;-70
2021/05/31 01:18:26;;;;;;;5.07;4.57;;;;;;;11.91;71.13;94639.03;2970771;39;20051;-70
2021/05/31 01:20:42;;;;;;;6.20;5.00;;;;;;;11.87;71.44;94633.28;2971397;39;20101;-70
2021/05/31 01:22:45;;;;;;;6.88;5.00;;;;;;;11.86;71.46;94625.59;2974512;39;20059;-70
2021/05/31 01:24:49;;;;;;;6.07;5.07;;;;;;;11.83;71.30;94631.16;2974595;39;20305;-69
2021/05/31 01:27:03;;;;;;;5.25;4.70;;;;;;;11.77;71.41;94640.53;2972734;40;20107;-69
2021/05/31 01:29:06;;;;;;;6.03;4.97;;;;;;;11.77;71.60;94623.97;2964986;40;20155;-81
2021/05/31 01:31:08;;;;;;;6.70;4.80;;;;;;;11.84;71.23;94624.94;2974925;39;20801;-83
2021/05/31 01:33:14;;;;;;;7.05;5.78;;;;;;;11.86;71.48;94623.78;2971867;40;20204;-80
2021/05/31 01:35:24;;;;;;;5.75;4.88;;;;;;;11.91;71.45;94630.34;2975523;40;20051;-81
2021/05/31 01:37:28;;;;;;;5.07;4.53;;;;;;;11.95;70.67;94624.59;2973838;39;20107;-82
2021/05/31 01:39:31;;;;;;;;;;;;;;;11.98;71.19;94629.53;2976465;39;20079;-81
2021/05/31 01:41:33;;;;;;;5.55;4.95;;;;;;;12.01;71.04;94618.66;2974523;39;20016;-81
2021/05/31 01:43:35;;;;;;;4.95;4.45;;;;;;;12.02;70.80;94619.47;2976013;39;20059;-81
2021/05/31 01:45:37;;;;;;;7.00;4.80;;;;;;;12.03;70.60;94614.06;2972017;39;20083;-82
2021/05/31 01:47:41;;;;;;;6.07;4.90;;;;;;;12.10;70.27;94616.84;2971383;39;20137;-82
2021/05/31 01:49:44;;;;;;;5.28;4.50;;;;;;;12.14;70.25;94610.25;2975777;40;20040;-81
2021/05/31 01:51:47;;;;;;;6.57;3.97;;;;;;;12.20;69.95;94614.00;2967779;40;20071;-82
2021/05/31 01:53:50;;;;;;;7.40;5.28;;;;;;;12.24;69.29;94613.50;2970964;39;20100;-82
2021/05/31 01:55:52;;;;;;;4.90;4.40;;;;;;;12.29;69.37;94602.47;2973969;39;20418;-81
2021/05/31 01:57:54;;;;;;;4.90;4.10;;;;;;;12.27;68.47;94602.63;2976580;39;20318;-82
2021/05/31 01:59:57;;;;;;;7.82;4.72;;;;;;;12.23;68.80;94588.19;2971834;39;20078;-82
2021/05/31 02:02:19;;;;;;;7.32;4.72;;;;;;;12.19;69.18;94602.66;2967320;40;20129;-82
2021/05/31 02:04:22;;;;;;;5.03;4.05;;;;;;;12.16;69.21;94602.22;2974544;39;20329;-80
2021/05/31 02:06:23;;;;;;;5.97;4.30;;;;;;;12.17;68.81;94595.94;2976731;40;20426;-81
2021/05/31 02:08:25;;;;;;;4.30;3.88;;;;;;;12.19;68.69;94586.91;2978137;39;20095;-81
2021/05/31 02:10:27;;;;;;;5.95;4.47;;;;;;;12.10;69.14;94593.19;2970582;39;20137;-81
2021/05/31 02:12:35;;;;;;;6.03;4.50;;;;;;;12.10;69.04;94590.56;2973895;39;20064;-82
2021/05/31 02:14:51;;;;;;;5.15;4.65;;;;;;;12.09;69.44;94591.56;2969264;40;20425;-81
2021/05/31 02:16:59;;;;;;;6.80;4.50;;;;;;;12.11;69.15;94583.50;2975863;39;20126;-82
2021/05/31 02:19:02;;;;;;;5.43;4.20;;;;;;;12.06;68.89;94592.72;2976233;39;20055;-81
2021/05/31 02:21:09;;;;;;;5.55;4.55;;;;;;;12.09;69.06;94583.69;2967980;40;20060;-81
2021/05/31 02:23:11;;;;;;;4.88;4.38;;;;;;;12.09;68.92;94591.56;2976467;39;20542;-80
2021/05/31 02:25:14;;;;;;;5.95;4.78;;;;;;;12.12;68.70;94591.22;2968218;39;20441;-82
2021/05/31 02:27:16;;;;;;;5.30;4.80;;;;;;;12.06;69.15;94590.09;2969035;39;20432;-81
2021/05/31 02:29:18;;;;;;;6.18;4.63;;;;;;;12.05;69.30;94590.28;2972246;40;20077;-82
2021/05/31 02:31:20;;;;;;;6.40;4.32;;;;;;;12.03;69.50;94587.00;2974811;39;20091;-83
2021/05/31 02:33:24;;;;;;;5.35;4.50;;;;;;;12.06;69.62;94589.28;2982765;39;20054;-81
2021/05/31 02:35:28;;;;;;;8.07;4.50;;;;;;;12.05;69.62;94585.84;2974039;39;20064;-82
2021/05/31 02:37:39;;;;;;;5.68;4.18;;;;;;;12.07;69.64;94585.66;2971481;39;20064;-81
2021/05/31 02:39:41;;;;;;;5.22;4.60;;;;;;;12.08;69.49;94584.66;2975991;39;20055;-83
2021/05/31 02:41:45;;;;;;;6.32;4.68;;;;;;;12.00;69.84;94582.06;2975725;39;20091;-84
2021/05/31 02:43:47;;;;;;;5.18;4.45;;;;;;;11.83;70.07;94587.38;2975584;39;20097;-82
2021/05/31 02:45:49;;;;;;;7.05;5.13;;;;;;;11.93;70.02;94581.94;2967470;39;20484;-81
2021/05/31 02:47:52;;;;;;;7.22;4.90;;;;;;;11.95;70.00;94590.47;2972193;40;20052;-80
2021/05/31 02:49:54;;;;;;;5.70;4.75;;;;;;;11.95;70.21;94590.47;2975810;39;20051;-82
2021/05/31 02:51:56;;;;;;;6.28;4.45;;;;;;;11.94;69.76;94588.00;2976217;39;20196;-81
2021/05/31 02:53:58;;;;;;;5.45;4.45;;;;;;;11.90;70.01;94587.53;2974966;39;20388;-82
2021/05/31 02:56:01;;;;;;;8.80;5.32;;;;;;;11.86;70.28;94587.03;2968749;39;20375;-82
2021/05/31 02:58:03;;;;;;;;;;;;;;;11.91;70.37;94586.53;2980307;39;20063;-80
2021/05/31 03:00:07;;;;;;;5.60;4.38;;;;;;;11.88;70.35;94589.50;2985215;39;19947;-81
2021/05/31 03:02:09;;;;;;;6.03;4.80;;;;;;;11.94;70.11;94588.00;2967548;40;20040;-81
2021/05/31 03:04:10;;;;;;;5.32;4.68;;;;;;;11.86;70.50;94587.03;2980339;39;20051;-81
2021/05/31 03:06:12;;;;;;;5.30;4.45;;;;;;;11.94;70.05;94588.84;2974785;39;20072;-83
2021/05/31 03:08:14;;;;;;;5.20;4.70;;;;;;;12.02;69.83;94582.72;2971856;39;20063;-82
2021/05/31 03:10:16;;;;;;;6.80;5.03;;;;;;;11.94;70.18;94586.22;2976737;39;20233;-81
2021/05/31 03:12:19;;;;;;;5.68;4.70;;;;;;;11.91;70.38;94590.97;2976178;39;20056;-82
2021/05/31 03:14:20;;;;;;;6.28;4.88;;;;;;;11.96;70.04;94586.03;2971145;39;20059;-81
2021/05/31 03:16:22;;;;;;;5.70;5.10;;;;;;;11.93;70.33;94587.19;2973687;39;20040;-81
2021/05/31 03:18:24;;;;;;;5.47;4.80;;;;;;;11.97;70.52;94592.94;2971179;39;20056;-80
2021/05/31 03:20:27;;;;;;;6.88;4.97;;;;;;;11.94;70.33;94580.97;2977322;39;20076;-82
2021/05/31 03:22:29;;;;;;;6.03;4.93;;;;;;;12.00;70.49;94587.31;2976193;40;20443;-82
2021/05/31 03:24:31;;;;;;;4.95;4.45;;;;;;;11.96;70.27;94573.75;2976939;39;20413;-82
2021/05/31 03:26:33;;;;;;;6.30;5.18;;;;;;;12.01;69.93;94568.78;2975215;39;20121;-80
2021/05/31 03:28:34;;;;;;;6.00;4.95;;;;;;;11.99;70.04;94575.19;2976841;39;20040;-82
2021/05/31 03:30:36;;;;;;;5.75;4.90;;;;;;;12.02;69.51;94577.47;2966983;40;20132;-81
2021/05/31 03:32:39;;;;;;;6.05;5.00;;;;;;;11.96;70.08;94576.38;2975814;39;20386;-83
2021/05/31 03:34:41;;;;;;;6.35;4.90;;;;;;;11.95;70.17;94574.72;2976719;39;20412;-83
2021/05/31 03:36:42;;;;;;;5.35;4.65;;;;;;;11.97;70.43;94574.56;2976718;39;20056;-83
2021/05/31 03:38:44;;;;;;;7.28;5.25;;;;;;;11.88;70.05;94574.56;2977112;39;20405;-82
2021/05/31 03:40:46;;;;;;;5.88;4.80;;;;;;;11.88;70.31;94581.63;2975823;39;20116;-83
2021/05/31 03:42:52;;;;;;;8.90;6.80;;;;;;;11.88;70.24;94585.06;2976189;39;20055;-81
2021/05/31 03:44:54;;;;;;;6.40;4.65;;;;;;;11.90;70.26;94582.28;2976378;39;20068;-83
2021/05/31 03:46:56;;;;;;;12.48;5.50;;;;;;;11.88;70.26;94582.44;2969355;40;20340;-81
2021/05/31 03:48:58;;;;;;;7.07;5.18;;;;;;;11.87;70.52;94586.06;2966665;39;20055;-81
2021/05/31 03:51:10;;;;;;;6.15;5.10;;;;;;;11.84;70.51;94588.19;2976662;39;20426;-82
2021/05/31 03:53:11;;;;;;;4.95;4.45;;;;;;;11.87;70.05;94583.44;2976591;39;20525;-81
2021/05/31 03:55:13;;;;;;;7.35;5.35;;;;;;;11.89;70.22;94588.50;2976518;39;20157;-81
2021/05/31 03:57:16;;;;;;;8.95;5.18;;;;;;;11.88;69.63;94587.69;2970693;40;20052;-82
2021/05/31 03:59:18;;;;;;;7.25;5.13;;;;;;;11.88;70.32;94590.31;2974993;39;20347;-82
2021/05/31 04:01:20;;;;;;;7.10;5.43;;;;;;;11.87;70.01;94588.69;2968977;39;20074;-82
2021/05/31 04:03:22;;;;;;;7.43;5.20;;;;;;;11.87;70.46;94588.69;2976869;39;20456;-82
2021/05/31 04:05:29;;;;;;;6.05;5.10;;;;;;;11.91;69.99;94591.78;2967653;40;20052;-83
2021/05/31 04:12:11;;;;;;;5.75;4.93;;;;;;;11.97;69.42;94593.75;2975359;39;20136;-82
2021/05/31 04:14:15;;;;;;;7.93;5.35;;;;;;;11.93;69.53;94595.06;2976644;39;20060;-79
2021/05/31 04:16:17;;;;;;;7.68;5.30;;;;;;;11.88;69.55;94590.31;2975268;39;20096;-81
2021/05/31 04:18:18;;;;;;;6.53;5.43;;;;;;;11.92;69.61;94592.63;2969635;39;20063;-83
2021/05/31 04:20:22;;;;;;;6.68;5.10;;;;;;;11.89;69.17;94601.63;2976246;39;20475;-82
2021/05/31 04:22:24;;;;;;;6.07;5.35;;;;;;;11.85;69.45;94595.91;2970195;39;20289;-84
2021/05/31 04:24:26;;;;;;;6.75;5.00;;;;;;;11.97;69.21;94591.13;2968524;39;20163;-83
2021/05/31 04:26:29;;;;;;;6.82;5.53;;;;;;;11.96;68.80;94586.88;2969180;39;20137;-82
2021/05/31 04:28:30;;;;;;;7.35;5.45;;;;;;;11.78;69.18;94594.91;2976894;39;20052;-82
2021/05/31 04:30:32;;;;;;;6.43;4.90;;;;;;;11.68;68.98;94589.06;2974726;39;20152;-84
2021/05/31 04:32:34;;;;;;;7.05;5.50;;;;;;;11.78;68.92;94589.66;2969631;40;20051;-82
2021/05/31 04:34:36;;;;;;;6.82;5.35;;;;;;;11.81;68.99;94591.16;2974651;39;20448;-82
2021/05/31 04:36:40;;;;;;;9.15;5.68;;;;;;;11.80;68.52;94573.75;2975680;39;20080;-83
2021/05/31 04:38:42;;;;;;;6.18;5.47;;;;;;;11.86;68.71;94591.47;2975031;39;20375;-85
2021/05/31 04:40:43;;;;;;;6.72;5.18;;;;;;;11.97;68.26;94593.75;2971733;39;20060;-83
2021/05/31 04:42:45;;;;;;;7.75;5.38;;;;;;;12.00;68.35;94584.69;2975295;40;20068;-84
2021/05/31 04:44:47;;;;;;;7.20;5.22;;;;;;;12.18;67.81;94579.22;2973160;40;20148;-84
2021/05/31 04:46:48;;;;;;;7.07;5.47;;;;;;;12.18;68.26;94580.03;2977401;39;20048;-83
2021/05/31 04:48:50;;;;;;;6.30;5.22;;;;;;;12.33;66.98;94581.94;2977749;39;20052;-83
2021/05/31 04:50:56;;;;;;;7.35;5.30;;;;;;;12.33;67.09;94584.56;2971268;39;20137;-82
2021/05/31 04:52:57;;;;;;;6.32;5.38;;;;;;;12.27;66.21;94576.38;2980488;39;20080;-81
2021/05/31 04:54:59;;;;;;;6.60;5.03;;;;;;;12.27;66.87;94584.25;2982403;39;20099;-81
2021/05/31 04:57:01;;;;;;;6.13;5.25;;;;;;;12.08;66.58;94579.41;2977282;40;20068;-83
2021/05/31 04:59:03;;;;;;;6.60;5.18;;;;;;;12.21;67.31;94584.13;2970460;39;20449;-84
2021/05/31 05:01:05;;;;;;;6.30;5.03;;;;;;;12.11;66.84;94580.88;2976110;39;20775;-81
2021/05/31 05:03:06;;;;;;;5.63;5.05;;;;;;;12.02;67.40;94583.56;2971594;39;20036;-82
2021/05/31 05:05:09;;;;;;;6.35;4.85;;;;;;;12.08;66.87;94582.03;2978062;39;20060;-81
2021/05/31 05:07:12;;;;;;;6.90;5.38;;;;;;;12.06;67.22;94590.09;2977093;39;20058;-81
2021/05/31 05:09:16;;;;;;;6.20;5.03;;;;;;;12.06;66.55;94584.84;2976809;39;20403;-82
2021/05/31 05:11:18;;;;;;;8.90;6.22;;;;;;;12.24;66.99;94584.59;2977511;39;20051;-81
2021/05/31 05:13:20;;;;;;;6.95;5.30;;;;;;;12.25;66.67;94577.53;2975093;39;20387;-80
2021/05/31 05:15:23;;;;;;;6.50;5.70;;;;;;;12.23;66.80;94587.41;2974318;40;20092;-84
2021/05/31 05:17:25;;;;;;;6.82;5.60;;;;;;;12.25;67.00;94580.97;2976316;39;20080;-83
2021/05/31 05:19:27;;;;;;;6.68;5.53;;;;;;;12.41;66.54;94579.25;2976507;39;20425;-84
2021/05/31 05:21:28;;;;;;;7.07;5.30;;;;;;;12.48;66.37;94582.84;2975847;39;20449;-85
2021/05/31 05:23:30;;;;;;;6.85;5.72;;;;;;;12.48;67.00;94577.59;2977410;39;20055;-84
2021/05/31 05:25:32;;;;;;;6.97;5.65;;;;;;;12.57;66.11;94583.59;2976265;39;20051;-83
2021/05/31 05:27:35;;;;;;;7.53;6.07;;;;;;;12.57;65.60;94583.59;2976598;39;20056;-82
2021/05/31 05:29:37;;;;;;;6.78;5.47;;;;;;;12.29;66.30;94582.28;2978504;39;20047;-83
2021/05/31 05:31:39;;;;;;;6.32;5.35;;;;;;;12.23;66.74;94587.41;2977236;40;20064;-83
2021/05/31 05:33:45;;;;;;;7.10;5.68;;;;;;;12.18;66.48;94585.28;2973586;39;20054;-82
2021/05/31 05:35:57;;;;;;;9.15;6.28;;;;;;;12.28;66.89;94591.16;2981076;39;20105;-83
2021/05/31 05:40:46;;;;;;;6.68;5.65;;;;;;;12.68;65.49;94596.34;2975396;39;20064;-86
2021/05/31 05:49:17;;;;;;;7.22;5.45;;;;;;;12.21;66.45;94590.19;2971279;40;20082;-82
2021/05/31 05:51:21;;;;;;;6.43;5.18;;;;;;;12.36;66.41;94590.28;2978668;40;20054;-83
2021/05/31 05:53:22;;;;;;;7.18;4.95;;;;;;;11.99;66.81;94604.88;2970117;40;20088;-82
2021/05/31 05:55:24;;;;;;;8.20;5.20;;;;;;;11.69;67.64;94595.94;2976366;39;20263;-84
2021/05/31 05:57:26;;;;;;;9.18;5.72;;;;;;;12.01;67.27;94594.22;2978405;39;20151;-82
2021/05/31 05:59:27;;;;;;;6.22;5.38;;;;;;;12.35;66.25;94595.72;2969422;39;20069;-81
2021/05/31 06:01:29;;;;;;;10.15;5.53;;;;;;;12.38;66.11;94595.38;2972409;40;20347;-83
2021/05/31 06:03:31;;;;;;;6.93;5.25;;;;;;;12.06;67.08;94587.47;2977946;39;20075;-84
2021/05/31 06:05:33;;;;;;;6.03;4.78;;;;;;;12.16;65.73;94592.53;2978182;40;20125;-83
2021/05/31 06:07:35;;;;;;;6.95;5.03;;;;;;;11.72;67.58;94595.59;2981413;39;20052;-81
2021/05/31 06:09:37;;;;;;;6.43;5.07;;;;;;;11.81;67.52;94601.66;2975692;39;20050;-81
2021/05/31 06:11:39;;;;;;;6.47;4.68;;;;;;;11.57;68.71;94600.72;2978198;39;20175;-79
2021/05/31 06:13:42;;;;;;;6.07;5.07;;;;;;;11.69;68.39;94591.50;2973405;40;20052;-82
2021/05/31 06:15:44;;;;;;;6.20;5.22;;;;;;;11.68;67.68;94599.56;2983534;39;20463;-83
2021/05/31 06:17:46;;;;;;;6.03;4.57;;;;;;;11.58;68.08;94584.00;2978331;39;20075;-84
2021/05/31 06:19:48;;;;;;;6.93;5.15;;;;;;;11.83;67.29;94586.53;2984282;39;20133;-81
2021/05/31 06:21:50;;;;;;;6.70;4.55;;;;;;;11.73;67.04;94578.06;2977204;39;20080;-84
2021/05/31 06:23:54;;;;;;;5.32;4.57;;;;;;;11.81;66.46;94584.09;2974085;40;20149;-83
2021/05/31 06:25:55;;;;;;;5.93;4.55;;;;;;;11.40;67.36;94584.22;2970576;39;20117;-84
2021/05/31 06:27:58;;;;;;;6.35;4.53;;;;;;;11.52;67.39;94575.97;2983533;39;20082;-84
2021/05/31 06:30:00;;;;;;;7.28;5.47;;;;;;;11.60;67.81;94575.97;2971303;39;20453;-83
2021/05/31 06:32:02;;;;;;;6.47;4.63;;;;;;;11.91;68.09;94572.59;2978069;39;20067;-86
2021/05/31 06:34:04;;;;;;;6.55;4.45;;;;;;;12.20;66.63;94572.00;2978145;39;20626;-83
2021/05/31 06:36:08;;;;;;;5.78;4.30;;;;;;;12.47;64.94;94565.41;2976215;39;20147;-82
2021/05/31 06:38:10;;;;;;;4.93;3.90;;;;;;;12.78;64.32;94562.75;2977136;39;20048;-82
2021/05/31 06:40:14;;;;;;;7.38;4.43;;;;;;;12.94;64.54;94569.69;2970677;39;20080;-83
2021/05/31 06:42:16;;;;;;;5.68;4.28;;;;;;;12.64;64.48;94566.94;2975212;39;20061;-85
2021/05/31 06:44:18;;;;;;;7.90;4.68;;;;;;;12.60;65.55;94568.28;2964380;40;20336;-83
2021/05/31 06:46:20;;;;;;;6.63;4.40;;;;;;;12.84;63.64;94562.06;2971396;39;20389;-84
2021/05/31 06:48:22;;;;;;;5.55;4.53;;;;;;;12.53;64.35;94562.09;2974565;39;20379;-82
2021/05/31 06:50:25;;;;;;;6.43;4.72;;;;;;;12.62;64.94;94563.69;2975129;39;20052;-84
2021/05/31 06:52:27;;;;;;;5.32;3.80;;;;;;;12.74;63.38;94565.91;2967433;40;20060;-83
2021/05/31 06:54:28;;;;;;;6.43;4.55;;;;;;;12.65;64.71;94567.78;2982297;39;20071;-82
2021/05/31 06:56:30;;;;;;;6.50;5.18;;;;;;;12.82;65.42;94563.19;2977590;39;20386;-83
2021/05/31 06:58:32;;;;;;;6.00;4.07;;;;;;;13.01;62.50;94570.59;2977449;39;20136;-85
2021/05/31 07:00:34;;;;;;;12.43;5.80;;;;;;;13.13;62.41;94572.84;2978220;40;20064;-84
2021/05/31 07:02:36;;;;;;;11.23;5.63;;;;;;;12.58;64.62;94569.47;2977462;39;20084;-85
2021/05/31 07:04:38;;;;;;;6.18;4.65;;;;;;;12.80;64.19;94565.19;2973677;40;20412;-83
2021/05/31 07:06:40;;;;;;;9.63;4.80;;;;;;;13.18;62.91;94563.41;2977113;39;20311;-84
2021/05/31 07:08:43;;;;;;;21.77;6.40;;;;;;;13.49;62.43;94571.22;2977181;40;20051;-84
2021/05/31 07:10:46;;;;;;;13.43;6.20;;;;;;;13.73;61.81;94564.06;2972204;39;20055;-82
2021/05/31 07:12:48;;;;;;;12.13;5.97;;;;;;;13.64;62.54;94570.41;2970805;39;20068;-83
2021/05/31 07:14:51;;;;;;;9.00;5.10;;;;;;;13.04;63.63;94562.38;2977956;39;20400;-83
2021/05/31 07:16:54;;;;;;;6.88;4.95;;;;;;;13.29;63.38;94567.44;2973994;39;20068;-84
2021/05/31 07:18:56;;;;;;;12.63;4.90;;;;;;;13.22;62.33;94571.75;2972241;40;20064;-71
2021/05/31 07:20:58;;;;;;;11.57;5.68;;;;;;;13.43;61.91;94563.22;2962044;40;20410;-70
2021/05/31 07:23:00;;;;;;;11.02;5.68;;;;;;;13.10;62.01;94561.69;2972702;39;20063;-71
2021/05/31 07:25:03;;;;;;;9.27;5.55;;;;;;;13.48;61.55;94560.84;2966290;40;20052;-70
2021/05/31 07:27:07;;;;;;;11.75;5.60;;;;;;;13.80;61.05;94559.69;2969810;40;20444;-70
2021/05/31 07:29:09;;;;;;;16.95;5.35;;;;;;;13.55;60.74;94567.06;2970903;39;20402;-72
2021/05/31 07:31:11;;;;;;;11.75;5.28;;;;;;;13.63;61.01;94563.50;2973129;40;20366;-70
2021/05/31 07:33:14;;;;;;;6.40;4.82;;;;;;;13.71;60.32;94558.16;2968156;40;20358;-69
2021/05/31 07:35:16;;;;;;;4.63;4.05;;;;;;;13.86;58.85;94553.69;2967728;39;20105;-70
2021/05/31 07:37:18;;;;;;;7.57;4.60;;;;;;;13.69;59.31;94553.06;2970627;40;20112;-70
2021/05/31 07:39:20;;;;;;;14.00;5.47;;;;;;;13.04;60.82;94561.56;2975326;39;20055;-70
2021/05/31 07:41:22;;;;;;;8.48;4.20;;;;;;;12.77;62.08;94557.66;2967751;39;20067;-73
2021/05/31 07:43:24;;;;;;;14.15;6.57;;;;;;;12.68;61.76;94560.34;2971628;39;20047;-70
2021/05/31 07:45:26;;;;;;;6.65;4.53;;;;;;;12.87;62.06;94560.88;2974467;39;20056;-70
2021/05/31 07:47:28;;;;;;;12.82;5.25;;;;;;;12.97;62.37;94556.22;2972730;39;20044;-69
2021/05/31 07:49:30;;;;;;;8.02;4.57;;;;;;;13.70;60.42;94556.50;2973006;39;20072;-70
2021/05/31 07:51:32;;;;;;;7.78;3.90;;;;;;;14.12;58.67;94549.75;2966445;39;20089;-69
2021/05/31 07:53:34;;;;;;;6.03;3.38;;;;;;;14.53;56.05;94557.13;2966086;39;20063;-70
2021/05/31 07:55:36;;;;;;;4.75;3.28;;;;;;;14.76;55.71;94543.78;2971778;39;20161;-69
2021/05/31 07:57:39;;;;;;;6.22;3.38;;;;;;;15.01;54.57;94541.56;2974411;39;20070;-70
2021/05/31 07:59:41;;;;;;;9.73;4.20;;;;;;;15.10;55.04;94535.16;2968012;39;20043;-71
2021/05/31 08:01:43;;;;;;;6.68;3.50;;;;;;;15.34;54.07;94538.38;2974063;40;20091;-69
2021/05/31 08:03:47;;;;;;;5.05;3.28;;;;;;;15.63;53.81;94533.91;2969126;39;20332;-70
2021/05/31 08:05:48;;;;;;;3.70;2.90;;;;;;;15.80;53.71;94534.44;2973440;40;20155;-71
2021/05/31 08:07:50;;;;;;;4.07;3.20;;;;;;;15.72;52.93;94524.84;2973555;39;20048;-70
2021/05/31 08:09:52;;;;;;;4.32;2.70;;;;;;;15.54;53.28;94544.59;2973088;39;20117;-71
2021/05/31 08:11:55;;;;;;;3.92;2.78;;;;;;;15.45;52.71;94537.84;2967517;39;20107;-71
2021/05/31 08:13:57;;;;;;;4.03;3.20;;;;;;;15.41;53.07;94536.59;2971434;39;20150;-71
2021/05/31 08:15:59;;;;;;;2.97;2.60;;;;;;;15.65;52.58;94529.25;2966879;40;20040;-70
2021/05/31 08:18:04;;;;;;;5.82;3.58;;;;;;;15.66;52.47;94531.69;2966611;39;20447;-71
2021/05/31 08:20:08;;;;;;;6.97;3.60;;;;;;;15.74;52.61;94542.13;2973729;40;20060;-71
2021/05/31 08:22:09;;;;;;;7.55;4.25;;;;;;;14.90;54.87;94542.09;2974607;39;20421;-70
2021/05/31 08:24:11;;;;;;;4.63;3.03;;;;;;;15.27;53.54;94535.69;2967557;40;20615;-72
2021/05/31 08:26:19;;;;;;;15.82;6.10;;;;;;;15.14;53.62;94541.69;2972359;39;20730;-69
2021/05/31 08:28:20;;;;;;;7.40;3.50;;;;;;;15.02;53.60;94537.13;2967242;39;20067;-71
2021/05/31 08:30:22;;;;;;;4.68;3.10;;;;;;;15.17;53.10;94540.50;2974807;39;20059;-70
2021/05/31 08:32:24;;;;;;;3.72;2.80;;;;;;;15.33;51.84;94534.09;2969294;40;20376;-70
2021/05/31 08:34:28;;;;;;;14.70;3.85;;;;;;;15.63;51.64;94523.34;2972750;39;20328;-70
2021/05/31 08:36:30;;;;;;;8.23;3.00;;;;;;;15.61;52.07;94535.91;2973559;39;20055;-71
2021/05/31 08:38:32;;;;;;;6.18;2.97;;;;;;;15.70;51.46;94530.28;2967312;39;20120;-72
2021/05/31 08:40:34;;;;;;;3.50;2.60;;;;;;;15.69;50.96;94528.66;2967487;39;20160;-71
2021/05/31 08:42:37;;;;;;;4.95;3.53;;;;;;;15.84;51.54;94531.19;2974251;39;20152;-83
2021/05/31 08:44:39;;;;;;;4.50;2.67;;;;;;;15.89;51.70;94528.78;2976370;40;20055;-81
2021/05/31 08:46:41;;;;;;;6.25;3.42;;;;;;;15.51;50.32;94531.81;2977106;40;20056;-81
2021/05/31 08:48:43;;;;;;;5.43;3.42;;;;;;;14.97;53.02;94521.88;2976338;40;20048;-83
2021/05/31 08:50:45;;;;;;;4.93;3.33;;;;;;;14.88;53.85;94523.78;2978806;39;20035;-83
2021/05/31 08:52:49;;;;;;;4.38;3.47;;;;;;;14.85;53.98;94532.09;2975066;39;20048;-84
2021/05/31 08:54:51;;;;;;;4.65;3.28;;;;;;;14.52;54.69;94537.03;2972092;39;20453;-85
2021/05/31 08:56:52;;;;;;;4.05;2.80;;;;;;;14.93;53.78;94524.06;2971981;40;20055;-83
2021/05/31 08:58:54;;;;;;;3.75;3.08;;;;;;;15.10;54.04;94524.63;2974470;39;20092;-83
2021/05/31 09:00:56;;;;;;;5.25;3.28;;;;;;;15.47;53.55;94522.63;2975091;39;20197;-82
2021/05/31 09:03:02;;;;;;;6.40;3.78;;;;;;;15.23;53.96;94534.44;2974116;39;20055;-82
2021/05/31 09:05:05;;;;;;;5.90;3.30;;;;;;;14.81;54.26;94519.50;2976541;40;20052;-84
2021/05/31 09:07:07;;;;;;;7.10;3.88;;;;;;;14.57;55.91;94533.88;2972479;39;20088;-83
2021/05/31 09:09:08;;;;;;;6.65;3.40;;;;;;;14.17;56.30;94531.56;2974289;39;20108;-84
2021/05/31 09:11:17;;;;;;;5.30;3.53;;;;;;;14.15;56.82;94520.41;2974971;39;20080;-83
2021/05/31 09:13:25;;;;;;;5.50;3.50;;;;;;;14.06;57.05;94524.97;2974206;39;20056;-70
2021/05/31 09:15:27;;;;;;;7.47;3.72;;;;;;;14.14;55.71;94518.78;2971455;39;20129;-69
2021/05/31 09:17:31;;;;;;;6.13;3.78;;;;;;;14.49;55.97;94522.38;2967751;39;20052;-70
2021/05/31 09:19:34;;;;;;;4.25;3.20;;;;;;;15.05;54.11;94516.44;2974904;39;20070;-70
2021/05/31 09:21:39;;;;;;;4.38;3.05;;;;;;;15.40;53.03;94516.50;2968663;40;20071;-69
2021/05/31 09:23:41;;;;;;;3.38;2.58;;;;;;;15.71;51.40;94518.75;2973435;39;20405;-84
2021/05/31 09:25:43;;;;;;;4.65;2.90;;;;;;;15.88;50.67;94511.31;2973604;39;20439;-85
2021/05/31 09:27:50;;;;;;;4.32;2.83;;;;;;;16.05;50.42;94511.78;2977125;40;20103;-83
2021/05/31 09:30:00;;;;;;;4.82;2.50;;;;;;;16.28;49.98;94508.00;2979322;39;20128;-85
2021/05/31 09:32:03;;;;;;;4.38;2.22;;;;;;;16.45;48.81;94509.25;2978239;39;20355;-85
2021/05/31 09:34:07;;;;;;;3.92;2.50;;;;;;;16.72;48.72;94498.75;2979180;39;20101;-86
2021/05/31 09:36:10;;;;;;;9.02;3.03;;;;;;;16.97;48.08;94502.47;2970987;39;20054;-85
2021/05/31 09:38:16;;;;;;;7.75;3.42;;;;;;;16.87;47.42;94496.75;2977290;39;20048;-83
2021/05/31 09:40:19;;;;;;;8.45;3.05;;;;;;;17.07;48.01;94501.25;2971810;39;20060;-83
2021/05/31 09:42:20;;;;;;;5.87;2.83;;;;;;;17.03;47.57;94498.16;2976933;39;20445;-83
2021/05/31 09:44:27;;;;;;;7.00;3.10;;;;;;;16.68;49.05;94498.31;2972219;39;20380;-82
2021/05/31 09:46:36;;;;;;;10.00;3.90;;;;;;;16.95;49.15;94501.00;2972652;40;20072;-84
2021/05/31 09:48:38;;;;;;;4.90;2.80;;;;;;;17.09;48.33;94491.25;2973050;39;20601;-71
2021/05/31 09:50:39;;;;;;;6.25;2.30;;;;;;;17.18;47.57;94496.13;2975511;39;20060;-70
2021/05/31 09:52:41;;;;;;;5.00;3.08;;;;;;;17.46;47.56;94486.34;2970769;39;20071;-70
2021/05/31 09:54:44;;;;;;;4.88;2.50;;;;;;;17.30;46.01;94490.25;2973427;39;20064;-71